Time,TemperatureF,DewpointF,PressureIn,WindDirection,WindDirectionDegrees,WindSpeedMPH,WindSpeedGustMPH,Humidity,HourlyPrecipIn,Conditions,Clouds,dailyrainin,SoftwareType,DateUTC
2013-03-01 00:01:00,34.4,28.6,30.03,WNW,292,0.0,0.0,79,0.00,,---,0.00,VWS V14.01,2013-03-01 06:01:00,
2013-03-01 00:06:00,34.3,28.4,30.03,WNW,292,0.0,0.0,79,0.00,,---,0.00,VWS V14.01,2013-03-01 06:06:00,
2013-03-01 00:11:00,34.3,28.7,30.03,WNW,292,0.0,0.0,80,0.00,,---,0.00,VWS V14.01,2013-03-01 06:11:00,
2013-03-01 00:16:00,34.1,28.6,30.03,WNW,292,0.0,0.0,80,0.00,,---,0.00,VWS V14.01,2013-03-01 06:16:00,
2013-03-01 00:21:00,34.1,28.6,30.03,WNW,292,0.0,0.0,80,0.00,,---,0.00,VWS V14.01,2013-03-01 06:21:00,
2013-03-01 00:26:00,33.9,28.4,30.03,WNW,292,0.0,0.0,80,0.00,,---,0.00,VWS V14.01,2013-03-01 06:26:00,
2013-03-01 00:31:00,33.7,28.2,30.03,WNW,292,0.0,0.0,80,0.00,,---,0.00,VWS V14.01,2013-03-01 06:31:00,
2013-03-01 00:36:00,33.7,28.2,30.03,WNW,292,0.0,0.0,80,0.00,,---,0.00,VWS V14.01,2013-03-01 06:36:00,
2013-03-01 00:41:00,33.5,28.3,30.03,WNW,292,0.0,0.0,81,0.00,,---,0.00,VWS V14.01,2013-03-01 06:41:00,
2013-03-01 00:46:00,33.5,28.3,30.03,WNW,292,0.0,0.0,81,0.00,,---,0.00,VWS V14.01,2013-03-01 06:46:00,
2013-03-01 00:51:00,33.5,28.3,30.03,WNW,292,0.0,0.0,81,0.00,,---,0.00,VWS V14.01,2013-03-01 06:51:00,
2013-03-01 00:56:00,33.4,28.2,30.03,WNW,292,0.0,0.0,81,0.00,,---,0.00,VWS V14.01,2013-03-01 06:56:00,
2013-03-01 01:01:00,33.4,28.2,30.06,WNW,292,0.0,0.0,81,0.00,,---,0.00,VWS V14.01,2013-03-01 07:01:00,
2013-03-01 01:06:00,33.2,27.7,30.06,WNW,292,0.0,0.0,80,0.00,,---,0.00,VWS V14.01,2013-03-01 07:06:00,
2013-03-01 01:11:00,33.2,28.0,30.06,WNW,292,0.0,0.0,81,0.00,,---,0.00,VWS V14.01,2013-03-01 07:11:00,
2013-03-01 01:16:00,33.0,27.8,30.03,WNW,292,0.0,0.0,81,0.00,,---,0.00,VWS V14.01,2013-03-01 07:16:00,
2013-03-01 01:21:00,32.8,27.6,30.03,WNW,292,0.0,0.0,81,0.00,,---,0.00,VWS V14.01,2013-03-01 07:21:00,
2013-03-01 01:26:00,32.8,27.6,30.03,WNW,292,0.0,0.0,81,0.00,,---,0.00,VWS V14.01,2013-03-01 07:26:00,
2013-03-01 01:31:00,32.6,27.8,30.06,WNW,292,0.0,0.0,82,0.00,,---,0.00,VWS V14.01,2013-03-01 07:31:00,
2013-03-01 01:36:00,32.6,27.8,30.06,WNW,292,0.0,0.0,82,0.00,,---,0.00,VWS V14.01,2013-03-01 07:36:00,
2013-03-01 01:41:00,32.6,28.1,30.06,WNW,292,0.0,0.0,83,0.00,,---,0.00,VWS V14.01,2013-03-01 07:41:00,
2013-03-01 01:46:00,32.5,27.6,30.03,WNW,292,0.0,0.0,82,0.00,,---,0.00,VWS V14.01,2013-03-01 07:46:00,
2013-03-01 01:51:00,32.5,27.6,30.03,WNW,292,0.0,0.0,82,0.00,,---,0.00,VWS V14.01,2013-03-01 07:51:00,
2013-03-01 01:56:00,32.3,27.7,30.03,WNW,292,0.0,0.0,83,0.00,,---,0.00,VWS V14.01,2013-03-01 07:56:00,
2013-03-01 02:01:00,32.1,27.2,30.03,WNW,292,0.0,0.0,82,0.00,,---,0.00,VWS V14.01,2013-03-01 08:01:00,
2013-03-01 02:06:00,32.1,27.5,30.03,ENE,68,0.0,0.0,83,0.00,,---,0.00,VWS V14.01,2013-03-01 08:06:00,
2013-03-01 02:11:00,31.9,27.4,30.03,WSW,248,0.0,0.0,83,0.00,,---,0.00,VWS V14.01,2013-03-01 08:11:00,
2013-03-01 02:16:00,31.7,27.5,30.06,NNE,22,0.0,0.0,84,0.00,,---,0.00,VWS V14.01,2013-03-01 08:16:00,
2013-03-01 02:21:00,31.7,27.5,30.06,WSW,248,0.0,0.9,84,0.00,,---,0.00,VWS V14.01,2013-03-01 08:21:00,
2013-03-01 02:26:00,31.6,27.3,30.06,NNW,338,0.0,0.0,84,0.00,,---,0.00,VWS V14.01,2013-03-01 08:26:00,
2013-03-01 02:31:00,31.6,27.6,30.03,WSW,248,0.0,0.0,85,0.00,,---,0.00,VWS V14.01,2013-03-01 08:31:00,
2013-03-01 02:36:00,31.4,27.4,30.03,WSW,248,0.0,0.0,85,0.00,,---,0.00,VWS V14.01,2013-03-01 08:36:00,
2013-03-01 02:41:00,31.2,27.2,30.03,WSW,248,0.0,0.0,85,0.00,,---,0.00,VWS V14.01,2013-03-01 08:41:00,
2013-03-01 02:46:00,31.2,27.2,30.03,WSW,248,0.0,0.0,85,0.00,,---,0.00,VWS V14.01,2013-03-01 08:46:00,
2013-03-01 02:51:00,31.2,27.2,30.03,WSW,248,0.0,0.0,85,0.00,,---,0.00,VWS V14.01,2013-03-01 08:51:00,
2013-03-01 02:56:00,31.2,27.2,30.03,WSW,248,0.0,0.0,85,0.00,,---,0.00,VWS V14.01,2013-03-01 08:56:00,
2013-03-01 03:01:00,30.8,26.9,30.03,WNW,292,0.0,0.0,85,0.00,,---,0.00,VWS V14.01,2013-03-01 09:01:00,
2013-03-01 03:06:00,30.8,26.9,30.03,WNW,292,0.0,0.0,85,0.00,,---,0.00,VWS V14.01,2013-03-01 09:06:00,
2013-03-01 03:11:00,30.7,26.7,30.03,WNW,292,0.0,0.0,85,0.00,,---,0.00,VWS V14.01,2013-03-01 09:11:00,
2013-03-01 03:16:00,30.7,26.7,30.03,WNW,292,0.0,0.0,85,0.00,,---,0.00,VWS V14.01,2013-03-01 09:16:00,
2013-03-01 03:21:00,30.7,27.0,30.03,WNW,292,0.0,0.0,86,0.00,,---,0.00,VWS V14.01,2013-03-01 09:21:00,
2013-03-01 03:26:00,30.5,26.5,30.03,WNW,292,0.0,0.0,85,0.00,,---,0.00,VWS V14.01,2013-03-01 09:26:00,
2013-03-01 03:31:00,30.5,26.8,30.03,WNW,292,0.0,0.0,86,0.00,,---,0.00,VWS V14.01,2013-03-01 09:31:00,
2013-03-01 03:36:00,30.5,26.8,30.03,WNW,292,0.0,0.0,86,0.00,,---,0.00,VWS V14.01,2013-03-01 09:36:00,
2013-03-01 03:41:00,30.5,26.8,30.03,WNW,292,0.0,0.0,86,0.00,,---,0.00,VWS V14.01,2013-03-01 09:41:00,
2013-03-01 03:46:00,30.3,26.6,30.03,WNW,292,0.0,0.0,86,0.00,,---,0.00,VWS V14.01,2013-03-01 09:46:00,
2013-03-01 03:51:00,30.5,26.8,30.03,WNW,292,0.0,0.0,86,0.00,,---,0.00,VWS V14.01,2013-03-01 09:51:00,
2013-03-01 03:56:00,30.3,26.6,30.03,WNW,292,0.0,0.0,86,0.00,,---,0.00,VWS V14.01,2013-03-01 09:56:00,
2013-03-01 04:01:00,30.3,26.6,30.03,WNW,292,0.0,0.0,86,0.00,,---,0.00,VWS V14.01,2013-03-01 10:01:00,
2013-03-01 04:07:00,30.3,26.9,30.03,WNW,292,0.0,0.0,87,0.00,,---,0.00,VWS V14.01,2013-03-01 10:07:00,
2013-03-01 04:12:00,30.3,26.9,30.03,WNW,292,0.0,0.0,87,0.00,,---,0.00,VWS V14.01,2013-03-01 10:12:00,
2013-03-01 04:17:00,30.3,26.9,30.03,WNW,292,0.0,0.0,87,0.00,,---,0.00,VWS V14.01,2013-03-01 10:17:00,
2013-03-01 04:22:00,30.3,26.9,30.03,WNW,292,0.0,0.0,87,0.00,,---,0.00,VWS V14.01,2013-03-01 10:22:00,
2013-03-01 04:27:00,30.1,26.7,30.03,WNW,292,0.0,0.0,87,0.00,,---,0.00,VWS V14.01,2013-03-01 10:27:00,
2013-03-01 04:32:00,30.1,26.7,30.03,WNW,292,0.0,0.0,87,0.00,,---,0.00,VWS V14.01,2013-03-01 10:32:00,
2013-03-01 04:37:00,30.1,26.7,30.03,WNW,292,0.0,0.0,87,0.00,,---,0.00,VWS V14.01,2013-03-01 10:37:00,
2013-03-01 04:42:00,30.1,26.7,30.03,WNW,292,0.0,0.0,87,0.00,,---,0.00,VWS V14.01,2013-03-01 10:42:00,
2013-03-01 04:47:00,30.1,26.7,30.03,WNW,292,0.0,0.0,87,0.00,,---,0.00,VWS V14.01,2013-03-01 10:47:00,
2013-03-01 04:52:00,30.1,26.7,30.03,WNW,292,0.0,0.0,87,0.00,,---,0.00,VWS V14.01,2013-03-01 10:52:00,
2013-03-01 04:57:00,30.1,26.7,30.03,WNW,292,0.0,0.0,87,0.00,,---,0.00,VWS V14.01,2013-03-01 10:57:00,
2013-03-01 05:02:00,29.9,26.5,30.03,WNW,292,0.0,0.0,87,0.00,,---,0.00,VWS V14.01,2013-03-01 11:02:00,
2013-03-01 05:07:00,29.9,26.5,30.03,WNW,292,0.0,0.0,87,0.00,,---,0.00,VWS V14.01,2013-03-01 11:07:00,
2013-03-01 05:12:00,29.9,26.5,30.03,WNW,292,0.0,0.0,87,0.00,,---,0.00,VWS V14.01,2013-03-01 11:12:00,
2013-03-01 05:17:00,29.9,26.5,30.03,WNW,292,0.0,0.0,87,0.00,,---,0.00,VWS V14.01,2013-03-01 11:17:00,
2013-03-01 05:22:00,29.9,26.5,30.03,WNW,292,0.0,0.0,87,0.00,,---,0.00,VWS V14.01,2013-03-01 11:22:00,
2013-03-01 05:27:00,29.9,26.5,30.03,WNW,292,0.0,0.0,87,0.00,,---,0.00,VWS V14.01,2013-03-01 11:27:00,
2013-03-01 05:32:00,29.8,26.4,30.06,WNW,292,0.0,0.0,87,0.00,,---,0.00,VWS V14.01,2013-03-01 11:32:00,
2013-03-01 05:37:00,29.6,26.2,30.06,WSW,248,0.0,0.0,87,0.00,,---,0.00,VWS V14.01,2013-03-01 11:37:00,
2013-03-01 05:42:00,29.6,26.2,30.06,WSW,248,0.0,0.0,87,0.00,,---,0.00,VWS V14.01,2013-03-01 11:42:00,
2013-03-01 05:47:00,29.6,26.2,30.06,WNW,292,0.0,0.0,87,0.00,,---,0.00,VWS V14.01,2013-03-01 11:47:00,
2013-03-01 05:52:00,29.6,26.2,30.06,WNW,292,0.0,0.0,87,0.00,,---,0.00,VWS V14.01,2013-03-01 11:52:00,
2013-03-01 05:57:00,29.6,26.2,30.06,West,270,0.0,0.0,87,0.00,,---,0.00,VWS V14.01,2013-03-01 11:57:00,
2013-03-01 06:02:00,29.4,26.0,30.06,West,270,0.0,0.0,87,0.00,,---,0.00,VWS V14.01,2013-03-01 12:02:00,
2013-03-01 06:07:00,29.4,26.0,30.06,NW,315,0.0,0.0,87,0.00,,---,0.00,VWS V14.01,2013-03-01 12:07:00,
2013-03-01 06:12:00,29.2,25.8,30.06,NW,315,0.0,0.0,87,0.00,,---,0.00,VWS V14.01,2013-03-01 12:12:00,
2013-03-01 06:17:00,29.2,26.1,30.03,NW,315,0.0,0.0,88,0.00,,---,0.00,VWS V14.01,2013-03-01 12:17:00,
2013-03-01 06:22:00,29.2,26.1,30.03,NW,315,0.0,0.0,88,0.00,,---,0.00,VWS V14.01,2013-03-01 12:22:00,
2013-03-01 06:27:00,29.2,26.1,30.03,NW,315,0.0,0.0,88,0.00,,---,0.00,VWS V14.01,2013-03-01 12:27:00,
2013-03-01 06:32:00,29.2,26.1,30.06,NW,315,0.0,0.0,88,0.00,,---,0.00,VWS V14.01,2013-03-01 12:32:00,
2013-03-01 06:37:00,29.2,26.1,30.06,NW,315,0.0,0.0,88,0.00,,---,0.00,VWS V14.01,2013-03-01 12:37:00,
2013-03-01 06:42:00,29.2,26.1,30.06,NW,315,0.0,0.0,88,0.00,,---,0.00,VWS V14.01,2013-03-01 12:42:00,
2013-03-01 06:47:00,29.2,26.1,30.06,NW,315,0.0,0.0,88,0.00,,---,0.00,VWS V14.01,2013-03-01 12:47:00,
2013-03-01 06:52:00,29.4,26.3,30.06,NW,315,0.0,0.0,88,0.00,,---,0.00,VWS V14.01,2013-03-01 12:52:00,
2013-03-01 06:57:00,29.4,26.3,30.06,NW,315,0.0,0.0,88,0.00,,---,0.00,VWS V14.01,2013-03-01 12:57:00,
2013-03-01 07:02:00,29.6,26.5,30.06,NW,315,0.0,0.0,88,0.00,,---,0.00,VWS V14.01,2013-03-01 13:02:00,
2013-03-01 07:07:00,29.8,26.4,30.06,NW,315,0.0,0.0,87,0.00,,---,0.00,VWS V14.01,2013-03-01 13:07:00,
2013-03-01 07:12:00,29.9,26.8,30.06,NW,315,0.0,0.0,88,0.00,,---,0.00,VWS V14.01,2013-03-01 13:12:00,
2013-03-01 07:17:00,30.1,27.0,30.06,NNW,338,1.3,1.3,88,0.00,,---,0.00,VWS V14.01,2013-03-01 13:17:00,
2013-03-01 07:22:00,30.5,27.4,30.06,NNW,338,0.0,1.6,88,0.00,,---,0.00,VWS V14.01,2013-03-01 13:22:00,
2013-03-01 07:27:00,31.0,28.2,30.06,NNW,338,0.0,0.0,89,0.00,,---,0.00,VWS V14.01,2013-03-01 13:27:00,
2013-03-01 07:32:00,31.6,29.0,30.06,NNW,338,0.0,0.0,90,0.00,,---,0.00,VWS V14.01,2013-03-01 13:32:00,
2013-03-01 07:37:00,33.0,30.7,30.06,NNW,338,0.0,0.0,91,0.00,,---,0.00,VWS V14.01,2013-03-01 13:37:00,
2013-03-01 07:42:00,33.7,31.9,30.06,NNW,338,2.0,2.0,93,0.00,,---,0.00,VWS V14.01,2013-03-01 13:42:00,
2013-03-01 07:47:00,34.3,32.5,30.06,NNW,338,2.0,2.5,93,0.00,,---,0.00,VWS V14.01,2013-03-01 13:47:00,
2013-03-01 07:52:00,34.6,32.5,30.06,NNE,22,0.9,2.0,92,0.00,,---,0.00,VWS V14.01,2013-03-01 13:52:00,
2013-03-01 07:57:00,35.0,32.1,30.06,NNE,22,1.6,2.2,89,0.00,,---,0.00,VWS V14.01,2013-03-01 13:57:00,
2013-03-01 08:02:00,35.5,32.0,30.09,NNW,338,2.0,2.5,87,0.00,,---,0.00,VWS V14.01,2013-03-01 14:02:00,
2013-03-01 08:07:00,35.9,32.1,30.09,NNE,22,2.2,2.9,86,0.00,,---,0.00,VWS V14.01,2013-03-01 14:07:00,
2013-03-01 08:12:00,36.4,32.1,30.09,North,0,2.9,2.9,84,0.00,,---,0.00,VWS V14.01,2013-03-01 14:12:00,
2013-03-01 08:17:00,37.0,32.0,30.06,North,0,1.1,1.6,82,0.00,,---,0.00,VWS V14.01,2013-03-01 14:17:00,
2013-03-01 08:22:00,37.7,32.4,30.06,NE,45,2.2,2.2,81,0.00,,---,0.00,VWS V14.01,2013-03-01 14:22:00,
2013-03-01 08:27:00,38.2,31.7,30.06,NE,45,0.0,0.0,77,0.00,,---,0.00,VWS V14.01,2013-03-01 14:27:00,
2013-03-01 08:32:00,38.9,32.0,30.09,WNW,292,2.9,2.9,76,0.00,,---,0.00,VWS V14.01,2013-03-01 14:32:00,
2013-03-01 08:37:00,39.1,30.5,30.09,NNE,22,3.6,4.7,71,0.00,,---,0.00,VWS V14.01,2013-03-01 14:37:00,
2013-03-01 08:43:00,39.5,30.5,30.09,ENE,68,1.6,2.5,70,0.00,,---,0.00,VWS V14.01,2013-03-01 14:43:00,
2013-03-01 08:48:00,40.2,31.6,30.09,West,270,3.4,3.4,71,0.00,,---,0.00,VWS V14.01,2013-03-01 14:48:00,
2013-03-01 08:53:00,41.3,31.2,30.09,NNE,22,1.1,2.0,67,0.00,,---,0.00,VWS V14.01,2013-03-01 14:53:00,
2013-03-01 08:58:00,42.7,31.8,30.09,NNW,338,3.6,3.6,65,0.00,,---,0.00,VWS V14.01,2013-03-01 14:58:00,
2013-03-01 09:03:00,44.3,31.3,30.09,North,0,0.0,2.7,60,0.00,,---,0.00,VWS V14.01,2013-03-01 15:03:00,
2013-03-01 09:08:00,45.2,30.5,30.09,North,0,2.7,2.9,56,0.00,,---,0.00,VWS V14.01,2013-03-01 15:08:00,
2013-03-01 09:13:00,45.6,29.0,30.09,ENE,68,0.0,0.9,52,0.00,,---,0.00,VWS V14.01,2013-03-01 15:13:00,
2013-03-01 09:18:00,46.9,32.0,30.09,NNE,22,0.0,0.0,56,0.00,,---,0.00,VWS V14.01,2013-03-01 15:18:00,
2013-03-01 09:23:00,46.5,29.4,30.09,NNW,338,4.9,5.6,51,0.00,,---,0.00,VWS V14.01,2013-03-01 15:23:00,
2013-03-01 09:28:00,46.9,29.7,30.09,North,0,3.4,3.4,51,0.00,,---,0.00,VWS V14.01,2013-03-01 15:28:00,
2013-03-01 09:33:00,46.7,29.5,30.09,North,0,2.5,2.5,51,0.00,,---,0.00,VWS V14.01,2013-03-01 15:33:00,
2013-03-01 09:38:00,47.0,29.9,30.09,North,0,2.5,4.3,51,0.00,,---,0.00,VWS V14.01,2013-03-01 15:38:00,
2013-03-01 09:43:00,47.0,29.4,30.09,NNW,338,3.4,3.4,50,0.00,,---,0.00,VWS V14.01,2013-03-01 15:43:00,
2013-03-01 09:48:00,47.8,30.0,30.09,NNE,22,2.7,4.0,50,0.00,,---,0.00,VWS V14.01,2013-03-01 15:48:00,
2013-03-01 09:53:00,48.3,30.5,30.09,NW,315,3.8,3.8,50,0.00,,---,0.00,VWS V14.01,2013-03-01 15:53:00,
2013-03-01 09:58:00,48.8,31.0,30.09,WNW,292,2.5,4.7,50,0.00,,---,0.00,VWS V14.01,2013-03-01 15:58:00,
2013-03-01 10:03:00,49.0,30.2,30.09,SSE,158,1.1,3.4,48,0.00,,---,0.00,VWS V14.01,2013-03-01 16:03:00,
2013-03-01 10:08:00,48.8,30.0,30.09,NNW,338,6.0,6.0,48,0.00,,---,0.00,VWS V14.01,2013-03-01 16:08:00,
2013-03-01 10:13:00,49.2,30.4,30.09,NW,315,2.5,2.9,48,0.00,,---,0.00,VWS V14.01,2013-03-01 16:13:00,
2013-03-01 10:18:00,49.6,30.7,30.09,NNW,338,0.0,3.6,48,0.00,,---,0.00,VWS V14.01,2013-03-01 16:18:00,
2013-03-01 10:23:00,50.1,31.2,30.09,NNW,338,0.0,0.0,48,0.00,,---,0.00,VWS V14.01,2013-03-01 16:23:00,
2013-03-01 10:28:00,49.6,30.2,30.09,NNW,338,6.0,6.0,47,0.00,,---,0.00,VWS V14.01,2013-03-01 16:28:00,
2013-03-01 10:33:00,50.3,31.4,30.09,NNW,338,2.7,2.7,48,0.00,,---,0.00,VWS V14.01,2013-03-01 16:33:00,
2013-03-01 10:38:00,49.9,30.5,30.09,NNW,338,2.9,2.9,47,0.00,,---,0.00,VWS V14.01,2013-03-01 16:38:00,
2013-03-01 10:43:00,49.7,30.3,30.09,West,270,9.8,9.8,47,0.00,,---,0.00,VWS V14.01,2013-03-01 16:43:00,
2013-03-01 10:48:00,50.1,30.7,30.09,ENE,68,3.1,3.1,47,0.00,,---,0.00,VWS V14.01,2013-03-01 16:48:00,
2013-03-01 10:53:00,50.5,31.0,30.09,WSW,248,3.6,3.6,47,0.00,,---,0.00,VWS V14.01,2013-03-01 16:53:00,
2013-03-01 10:58:00,51.9,31.8,30.09,NNW,338,3.8,3.8,46,0.00,,---,0.00,VWS V14.01,2013-03-01 16:58:00,
2013-03-01 11:03:00,51.7,31.1,30.09,NNW,338,7.4,7.4,45,0.00,,---,0.00,VWS V14.01,2013-03-01 17:03:00,
2013-03-01 11:08:00,51.5,29.8,30.09,NNW,338,2.0,2.7,43,0.00,,---,0.00,VWS V14.01,2013-03-01 17:08:00,
2013-03-01 11:13:00,51.0,30.4,30.09,NNW,338,3.1,3.6,45,0.00,,---,0.00,VWS V14.01,2013-03-01 17:13:00,
2013-03-01 11:18:00,50.5,30.5,30.09,NNE,22,2.9,6.3,46,0.00,,---,0.00,VWS V14.01,2013-03-01 17:18:00,
2013-03-01 11:23:00,52.1,30.3,30.09,WNW,292,5.8,5.8,43,0.00,,---,0.00,VWS V14.01,2013-03-01 17:23:00,
2013-03-01 11:28:00,51.9,30.1,30.09,NNW,338,6.5,6.5,43,0.00,,---,0.00,VWS V14.01,2013-03-01 17:28:00,
2013-03-01 11:33:00,53.5,31.6,30.09,NNE,22,3.6,4.3,43,0.00,,---,0.00,VWS V14.01,2013-03-01 17:33:00,
2013-03-01 11:38:00,52.4,30.0,30.09,WNW,292,5.6,5.6,42,0.00,,---,0.00,VWS V14.01,2013-03-01 17:38:00,
2013-03-01 11:43:00,51.9,30.7,30.09,NNE,22,3.1,3.6,44,0.00,,---,0.00,VWS V14.01,2013-03-01 17:43:00,
2013-03-01 11:48:00,51.7,30.5,30.09,West,270,4.3,4.3,44,0.00,,---,0.00,VWS V14.01,2013-03-01 17:48:00,
2013-03-01 11:53:00,51.7,29.4,30.09,NNW,338,4.3,10.5,42,0.00,,---,0.00,VWS V14.01,2013-03-01 17:53:00,
2013-03-01 11:58:00,51.7,30.0,30.09,WNW,292,6.0,8.7,43,0.00,,---,0.00,VWS V14.01,2013-03-01 17:58:00,
2013-03-01 12:03:00,51.0,29.3,30.09,WNW,292,5.4,5.4,43,0.00,,---,0.00,VWS V14.01,2013-03-01 18:03:00,
2013-03-01 12:08:00,52.4,31.2,30.09,NE,45,3.8,3.8,44,0.00,,---,0.00,VWS V14.01,2013-03-01 18:08:00,
2013-03-01 12:13:00,51.2,28.9,30.09,North,0,7.4,8.7,42,0.00,,---,0.00,VWS V14.01,2013-03-01 18:13:00,
2013-03-01 12:18:00,50.8,29.7,30.06,WSW,248,3.1,3.1,44,0.00,,---,0.00,VWS V14.01,2013-03-01 18:18:00,
2013-03-01 12:23:00,50.5,29.4,30.06,North,0,5.6,5.6,44,0.00,,---,0.00,VWS V14.01,2013-03-01 18:23:00,
2013-03-01 12:28:00,50.6,29.5,30.06,NNW,338,1.6,1.6,44,0.00,,---,0.00,VWS V14.01,2013-03-01 18:28:00,
2013-03-01 12:33:00,50.1,29.0,30.06,NNW,338,3.4,6.3,44,0.00,,---,0.00,VWS V14.01,2013-03-01 18:33:00,
2013-03-01 12:38:00,49.0,28.6,30.06,WNW,292,7.8,7.8,45,0.00,,---,0.00,VWS V14.01,2013-03-01 18:38:00,
2013-03-01 12:43:00,50.5,30.5,30.09,WNW,292,3.8,3.8,46,0.00,,---,0.00,VWS V14.01,2013-03-01 18:43:00,
2013-03-01 12:48:00,51.0,31.0,30.09,West,270,3.4,8.1,46,0.00,,---,0.00,VWS V14.01,2013-03-01 18:48:00,
2013-03-01 12:53:00,52.3,30.5,30.09,ENE,68,2.2,2.7,43,0.00,,---,0.00,VWS V14.01,2013-03-01 18:53:00,
2013-03-01 12:58:00,50.6,29.5,30.06,NE,45,2.5,5.8,44,0.00,,---,0.00,VWS V14.01,2013-03-01 18:58:00,
2013-03-01 13:03:00,52.3,30.5,30.06,West,270,6.3,6.3,43,0.00,,---,0.00,VWS V14.01,2013-03-01 19:03:00,
2013-03-01 13:08:00,52.6,29.6,30.06,NW,315,3.1,5.4,41,0.00,,---,0.00,VWS V14.01,2013-03-01 19:08:00,
2013-03-01 13:13:00,53.3,30.3,30.06,SSW,202,4.3,4.3,41,0.00,,---,0.00,VWS V14.01,2013-03-01 19:13:00,
2013-03-01 13:19:00,52.6,29.6,30.06,NNW,338,3.8,9.0,41,0.00,,---,0.00,VWS V14.01,2013-03-01 19:19:00,
2013-03-01 13:24:00,50.8,28.0,30.06,NNW,338,2.9,4.9,41,0.00,,---,0.00,VWS V14.01,2013-03-01 19:24:00,
2013-03-01 13:29:00,52.1,29.7,30.03,North,0,3.8,4.3,42,0.00,,---,0.00,VWS V14.01,2013-03-01 19:29:00,
2013-03-01 13:34:00,51.5,28.6,30.03,NNE,22,5.8,5.8,41,0.00,,---,0.00,VWS V14.01,2013-03-01 19:34:00,
2013-03-01 13:39:00,51.9,29.0,30.03,NW,315,4.3,4.3,41,0.00,,---,0.00,VWS V14.01,2013-03-01 19:39:00,
2013-03-01 13:44:00,53.2,30.1,30.03,NNW,338,3.1,3.8,41,0.00,,---,0.00,VWS V14.01,2013-03-01 19:44:00,
2013-03-01 13:49:00,51.4,27.9,30.03,WNW,292,4.3,5.8,40,0.00,,---,0.00,VWS V14.01,2013-03-01 19:49:00,
2013-03-01 13:54:00,51.7,28.2,30.03,NW,315,0.9,5.4,40,0.00,,---,0.00,VWS V14.01,2013-03-01 19:54:00,
2013-03-01 13:59:00,51.2,27.7,30.03,West,270,5.6,6.5,40,0.00,,---,0.00,VWS V14.01,2013-03-01 19:59:00,
2013-03-01 14:04:00,52.6,29.6,30.03,NW,315,6.0,7.6,41,0.00,,---,0.00,VWS V14.01,2013-03-01 20:04:00,
2013-03-01 14:09:00,51.9,28.4,30.03,North,0,2.9,3.8,40,0.00,,---,0.00,VWS V14.01,2013-03-01 20:09:00,
2013-03-01 14:14:00,52.8,28.5,30.03,WNW,292,3.6,6.5,39,0.00,,---,0.00,VWS V14.01,2013-03-01 20:14:00,
2013-03-01 14:19:00,53.2,28.9,30.03,NNE,22,3.8,4.3,39,0.00,,---,0.00,VWS V14.01,2013-03-01 20:19:00,
2013-03-01 14:24:00,53.0,28.7,30.03,NNW,338,5.8,6.0,39,0.00,,---,0.00,VWS V14.01,2013-03-01 20:24:00,
2013-03-01 14:29:00,53.0,28.1,30.06,West,270,2.0,5.6,38,0.00,,---,0.00,VWS V14.01,2013-03-01 20:29:00,
2013-03-01 14:34:00,50.8,27.4,30.06,North,0,6.5,7.6,40,0.00,,---,0.00,VWS V14.01,2013-03-01 20:34:00,
2013-03-01 14:39:00,51.7,28.2,30.06,North,0,4.7,4.7,40,0.00,,---,0.00,VWS V14.01,2013-03-01 20:39:00,
2013-03-01 14:44:00,52.6,29.0,30.03,NNW,338,4.9,4.9,40,0.00,,---,0.00,VWS V14.01,2013-03-01 20:44:00,
2013-03-01 14:49:00,51.0,26.9,30.03,NW,315,4.3,4.9,39,0.00,,---,0.00,VWS V14.01,2013-03-01 20:49:00,
2013-03-01 14:54:00,50.6,27.2,30.03,NW,315,4.0,6.0,40,0.00,,---,0.00,VWS V14.01,2013-03-01 20:54:00,
2013-03-01 14:59:00,52.1,28.5,30.03,NNE,22,6.0,7.8,40,0.00,,---,0.00,VWS V14.01,2013-03-01 20:59:00,
2013-03-01 15:04:00,51.9,27.7,30.03,WNW,292,4.9,8.1,39,0.00,,---,0.00,VWS V14.01,2013-03-01 21:04:00,
2013-03-01 15:09:00,51.7,28.2,30.03,NNE,22,4.3,4.3,40,0.00,,---,0.00,VWS V14.01,2013-03-01 21:09:00,
2013-03-01 15:14:00,52.8,29.2,30.03,NNW,338,3.1,3.1,40,0.00,,---,0.00,VWS V14.01,2013-03-01 21:14:00,
2013-03-01 15:19:00,53.0,28.7,30.03,North,0,8.1,9.8,39,0.00,,---,0.00,VWS V14.01,2013-03-01 21:19:00,
2013-03-01 15:24:00,51.4,27.3,30.03,North,0,4.9,4.9,39,0.00,,---,0.00,VWS V14.01,2013-03-01 21:24:00,
2013-03-01 15:29:00,49.7,26.4,30.03,NNE,22,9.8,10.1,40,0.00,,---,0.00,VWS V14.01,2013-03-01 21:29:00,
2013-03-01 15:34:00,50.6,27.2,30.03,WNW,292,7.4,7.4,40,0.00,,---,0.00,VWS V14.01,2013-03-01 21:34:00,
2013-03-01 15:39:00,51.9,28.4,30.03,NNW,338,3.1,4.3,40,0.00,,---,0.00,VWS V14.01,2013-03-01 21:39:00,
2013-03-01 15:44:00,51.5,28.0,30.03,NNW,338,2.7,4.0,40,0.00,,---,0.00,VWS V14.01,2013-03-01 21:44:00,
2013-03-01 15:49:00,49.6,26.2,30.03,NNW,338,3.4,3.8,40,0.00,,---,0.00,VWS V14.01,2013-03-01 21:49:00,
2013-03-01 15:54:00,48.8,26.2,30.03,NNW,338,2.9,4.9,41,0.00,,---,0.00,VWS V14.01,2013-03-01 21:54:00,
2013-03-01 15:59:00,48.3,25.7,30.03,North,0,7.8,7.8,41,0.00,,---,0.00,VWS V14.01,2013-03-01 21:59:00,
2013-03-01 16:04:00,47.6,25.6,30.03,West,270,4.9,4.9,42,0.00,,---,0.00,VWS V14.01,2013-03-01 22:04:00,
2013-03-01 16:09:00,47.9,26.0,30.03,North,0,5.4,5.8,42,0.00,,---,0.00,VWS V14.01,2013-03-01 22:09:00,
2013-03-01 16:14:00,47.2,25.3,30.03,WNW,292,4.7,4.7,42,0.00,,---,0.00,VWS V14.01,2013-03-01 22:14:00,
2013-03-01 16:19:00,46.5,25.8,30.03,WNW,292,4.7,6.5,44,0.00,,---,0.00,VWS V14.01,2013-03-01 22:19:00,
2013-03-01 16:24:00,46.5,25.8,30.03,NNW,338,3.8,3.8,44,0.00,,---,0.00,VWS V14.01,2013-03-01 22:24:00,
2013-03-01 16:29:00,45.8,25.1,30.03,North,0,5.4,5.4,44,0.00,,---,0.00,VWS V14.01,2013-03-01 22:29:00,
2013-03-01 16:34:00,45.2,25.2,30.03,NW,315,3.1,4.9,45,0.00,,---,0.00,VWS V14.01,2013-03-01 22:34:00,
2013-03-01 16:39:00,44.9,24.8,30.03,NNW,338,5.4,5.4,45,0.00,,---,0.00,VWS V14.01,2013-03-01 22:39:00,
2013-03-01 16:44:00,44.7,25.2,30.06,NW,315,2.9,2.9,46,0.00,,---,0.00,VWS V14.01,2013-03-01 22:44:00,
2013-03-01 16:49:00,44.7,24.7,30.06,NNE,22,3.4,3.4,45,0.00,,---,0.00,VWS V14.01,2013-03-01 22:49:00,
2013-03-01 16:54:00,44.5,25.0,30.06,NNW,338,1.6,1.6,46,0.00,,---,0.00,VWS V14.01,2013-03-01 22:54:00,
2013-03-01 16:59:00,44.5,24.5,30.06,NNW,338,2.7,4.0,45,0.00,,---,0.00,VWS V14.01,2013-03-01 22:59:00,
2013-03-01 17:04:00,44.5,24.5,30.06,NW,315,5.6,5.6,45,0.00,,---,0.00,VWS V14.01,2013-03-01 23:04:00,
2013-03-01 17:09:00,44.5,25.6,30.06,NNW,338,6.3,6.3,47,0.00,,---,0.00,VWS V14.01,2013-03-01 23:09:00,
2013-03-01 17:14:00,44.2,25.2,30.06,NNW,338,2.9,5.8,47,0.00,,---,0.00,VWS V14.01,2013-03-01 23:14:00,
2013-03-01 17:19:00,44.0,25.6,30.06,NNE,22,3.4,3.4,48,0.00,,---,0.00,VWS V14.01,2013-03-01 23:19:00,
2013-03-01 17:24:00,43.8,24.9,30.06,NNW,338,3.1,4.0,47,0.00,,---,0.00,VWS V14.01,2013-03-01 23:24:00,
2013-03-01 17:29:00,43.6,25.2,30.06,NNE,22,2.7,4.7,48,0.00,,---,0.00,VWS V14.01,2013-03-01 23:29:00,
2013-03-01 17:34:00,43.3,25.9,30.06,NNW,338,2.5,4.0,50,0.00,,---,0.00,VWS V14.01,2013-03-01 23:34:00,
2013-03-01 17:39:00,43.1,25.7,30.06,NNW,338,2.0,2.5,50,0.00,,---,0.00,VWS V14.01,2013-03-01 23:39:00,
2013-03-01 17:44:00,42.9,25.6,30.09,NNW,338,2.9,5.6,50,0.00,,---,0.00,VWS V14.01,2013-03-01 23:44:00,
2013-03-01 17:49:00,42.5,25.7,30.09,NNW,338,3.6,5.4,51,0.00,,---,0.00,VWS V14.01,2013-03-01 23:49:00,
2013-03-01 17:54:00,42.2,24.9,30.09,NNE,22,5.4,5.4,50,0.00,,---,0.00,VWS V14.01,2013-03-01 23:54:00,
2013-03-01 17:59:00,42.2,25.4,30.09,NNW,338,3.4,6.5,51,0.00,,---,0.00,VWS V14.01,2013-03-01 23:59:00,
2013-03-01 18:04:00,42.0,25.2,30.09,WNW,292,6.3,6.3,51,0.00,,---,0.00,VWS V14.01,2013-03-02 00:04:00,
2013-03-01 18:09:00,41.6,24.9,30.09,NNE,22,5.4,5.4,51,0.00,,---,0.00,VWS V14.01,2013-03-02 00:09:00,
2013-03-01 18:14:00,41.6,24.9,30.09,NNW,338,2.7,4.3,51,0.00,,---,0.00,VWS V14.01,2013-03-02 00:14:00,
2013-03-01 18:19:00,41.5,24.7,30.09,NNW,338,4.9,4.9,51,0.00,,---,0.00,VWS V14.01,2013-03-02 00:19:00,
2013-03-01 18:24:00,41.5,24.7,30.09,North,0,3.1,5.6,51,0.00,,---,0.00,VWS V14.01,2013-03-02 00:24:00,
2013-03-01 18:29:00,41.3,24.5,30.12,NNE,22,2.7,3.8,51,0.00,,---,0.00,VWS V14.01,2013-03-02 00:29:00,
2013-03-01 18:34:00,41.1,24.4,30.12,North,0,3.6,3.6,51,0.00,,---,0.00,VWS V14.01,2013-03-02 00:34:00,
2013-03-01 18:39:00,41.1,24.4,30.12,NNE,22,3.6,3.6,51,0.00,,---,0.00,VWS V14.01,2013-03-02 00:39:00,
2013-03-01 18:44:00,40.9,24.2,30.12,NNW,338,2.7,5.6,51,0.00,,---,0.00,VWS V14.01,2013-03-02 00:44:00,
2013-03-01 18:49:00,40.7,24.0,30.12,North,0,2.5,2.9,51,0.00,,---,0.00,VWS V14.01,2013-03-02 00:49:00,
2013-03-01 18:54:00,40.4,24.2,30.12,ENE,68,3.4,3.8,52,0.00,,---,0.00,VWS V14.01,2013-03-02 00:54:00,
2013-03-01 18:59:00,40.0,23.8,30.09,NNW,338,2.9,3.8,52,0.00,,---,0.00,VWS V14.01,2013-03-02 00:59:00,
2013-03-01 19:05:00,39.7,23.0,30.09,NNW,338,2.0,2.5,51,0.00,,---,0.00,VWS V14.01,2013-03-02 01:05:00,
2013-03-01 19:10:00,39.7,23.5,30.09,NNW,338,2.9,2.9,52,0.00,,---,0.00,VWS V14.01,2013-03-02 01:10:00,
2013-03-01 19:15:00,39.7,23.5,30.09,NNW,338,2.5,2.5,52,0.00,,---,0.00,VWS V14.01,2013-03-02 01:15:00,
2013-03-01 19:20:00,39.7,23.5,30.09,NNW,338,1.6,2.0,52,0.00,,---,0.00,VWS V14.01,2013-03-02 01:20:00,
2013-03-01 19:25:00,38.8,22.7,30.09,WNW,292,3.1,3.1,52,0.00,,---,0.00,VWS V14.01,2013-03-02 01:25:00,
2013-03-01 19:30:00,38.8,22.7,30.12,NNW,338,1.6,1.6,52,0.00,,---,0.00,VWS V14.01,2013-03-02 01:30:00,
2013-03-01 19:35:00,38.8,22.7,30.12,NNW,338,0.0,0.0,52,0.00,,---,0.00,VWS V14.01,2013-03-02 01:35:00,
2013-03-01 19:40:00,38.8,22.7,30.12,North,0,2.5,2.5,52,0.00,,---,0.00,VWS V14.01,2013-03-02 01:40:00,
2013-03-01 19:45:00,38.8,22.7,30.12,NW,315,1.6,2.5,52,0.00,,---,0.00,VWS V14.01,2013-03-02 01:45:00,
2013-03-01 19:50:00,37.7,22.5,30.12,WNW,292,2.7,2.7,54,0.00,,---,0.00,VWS V14.01,2013-03-02 01:50:00,
2013-03-01 19:55:00,37.5,22.4,30.12,NW,315,1.6,1.6,54,0.00,,---,0.00,VWS V14.01,2013-03-02 01:55:00,
2013-03-01 20:00:00,37.3,22.2,30.12,NNW,338,1.6,1.6,54,0.00,,---,0.00,VWS V14.01,2013-03-02 02:00:00,
2013-03-01 20:05:00,37.1,22.0,30.12,NNW,338,1.1,1.1,54,0.00,,---,0.00,VWS V14.01,2013-03-02 02:05:00,
2013-03-01 20:10:00,37.1,22.0,30.12,NNW,338,1.3,1.3,54,0.00,,---,0.00,VWS V14.01,2013-03-02 02:10:00,
2013-03-01 20:15:00,37.3,22.6,30.12,NNW,338,1.3,1.3,55,0.00,,---,0.00,VWS V14.01,2013-03-02 02:15:00,
2013-03-01 20:20:00,37.3,22.6,30.12,NNW,338,1.6,1.6,55,0.00,,---,0.00,VWS V14.01,2013-03-02 02:20:00,
2013-03-01 20:25:00,37.5,22.8,30.12,NW,315,0.0,0.0,55,0.00,,---,0.00,VWS V14.01,2013-03-02 02:25:00,
2013-03-01 20:30:00,37.3,22.6,30.12,NW,315,0.0,0.0,55,0.00,,---,0.00,VWS V14.01,2013-03-02 02:30:00,
2013-03-01 20:35:00,37.1,22.5,30.12,NW,315,0.0,0.0,55,0.00,,---,0.00,VWS V14.01,2013-03-02 02:35:00,
2013-03-01 20:40:00,36.6,22.0,30.12,NW,315,0.0,0.0,55,0.00,,---,0.00,VWS V14.01,2013-03-02 02:40:00,
2013-03-01 20:45:00,36.4,22.2,30.12,NW,315,0.0,0.0,56,0.00,,---,0.00,VWS V14.01,2013-03-02 02:45:00,
2013-03-01 20:50:00,36.1,22.3,30.12,NW,315,0.0,0.0,57,0.00,,---,0.00,VWS V14.01,2013-03-02 02:50:00,
2013-03-01 20:55:00,35.9,22.6,30.12,NW,315,0.0,0.0,58,0.00,,---,0.00,VWS V14.01,2013-03-02 02:55:00,
2013-03-01 21:00:00,35.5,22.2,30.12,NW,315,0.0,0.0,58,0.00,,---,0.00,VWS V14.01,2013-03-02 03:00:00,
2013-03-01 21:05:00,35.3,22.0,30.12,NW,315,0.0,0.0,58,0.00,,---,0.00,VWS V14.01,2013-03-02 03:05:00,
2013-03-01 21:10:00,35.0,21.7,30.12,NW,315,0.0,0.0,58,0.00,,---,0.00,VWS V14.01,2013-03-02 03:10:00,
2013-03-01 21:15:00,34.8,22.0,30.12,NW,315,0.0,0.0,59,0.00,,---,0.00,VWS V14.01,2013-03-02 03:15:00,
2013-03-01 21:20:00,34.6,22.6,30.12,NW,315,0.0,0.0,61,0.00,,---,0.00,VWS V14.01,2013-03-02 03:20:00,
2013-03-01 21:25:00,34.3,22.6,30.12,NW,315,0.0,0.0,62,0.00,,---,0.00,VWS V14.01,2013-03-02 03:25:00,
2013-03-01 21:30:00,34.1,22.1,30.12,NW,315,0.0,0.0,61,0.00,,---,0.00,VWS V14.01,2013-03-02 03:30:00,
2013-03-01 21:35:00,33.9,21.9,30.12,NW,315,0.0,0.0,61,0.00,,---,0.00,VWS V14.01,2013-03-02 03:35:00,
2013-03-01 21:40:00,33.7,22.1,30.12,NW,315,0.0,0.0,62,0.00,,---,0.00,VWS V14.01,2013-03-02 03:40:00,
2013-03-01 21:45:00,33.5,21.9,30.12,NW,315,0.0,0.0,62,0.00,,---,0.00,VWS V14.01,2013-03-02 03:45:00,
2013-03-01 21:50:00,33.2,22.0,30.12,NW,315,0.0,0.0,63,0.00,,---,0.00,VWS V14.01,2013-03-02 03:50:00,
2013-03-01 21:55:00,33.2,22.7,30.12,NW,315,0.0,0.0,65,0.00,,---,0.00,VWS V14.01,2013-03-02 03:55:00,
2013-03-01 22:00:00,32.8,22.0,30.12,NW,315,0.0,0.0,64,0.00,,---,0.00,VWS V14.01,2013-03-02 04:00:00,
2013-03-01 22:05:00,32.6,22.2,30.12,NW,315,0.0,0.0,65,0.00,,---,0.00,VWS V14.01,2013-03-02 04:05:00,
2013-03-01 22:10:00,32.5,22.0,30.12,NW,315,0.0,0.0,65,0.00,,---,0.00,VWS V14.01,2013-03-02 04:10:00,
2013-03-01 22:15:00,32.1,22.0,30.12,NW,315,0.0,0.0,66,0.00,,---,0.00,VWS V14.01,2013-03-02 04:15:00,
2013-03-01 22:20:00,32.1,22.0,30.12,NW,315,0.0,0.0,66,0.00,,---,0.00,VWS V14.01,2013-03-02 04:20:00,
2013-03-01 22:25:00,31.9,21.9,30.12,NW,315,0.0,0.0,66,0.00,,---,0.00,VWS V14.01,2013-03-02 04:25:00,
2013-03-01 22:30:00,31.7,22.0,30.12,NW,315,0.0,0.0,67,0.00,,---,0.00,VWS V14.01,2013-03-02 04:30:00,
2013-03-01 22:35:00,31.4,22.1,30.12,NW,315,0.0,0.0,68,0.00,,---,0.00,VWS V14.01,2013-03-02 04:35:00,
2013-03-01 22:40:00,31.4,22.1,30.12,NW,315,0.0,0.0,68,0.00,,---,0.00,VWS V14.01,2013-03-02 04:40:00,
2013-03-01 22:45:00,31.2,22.2,30.12,NW,315,0.0,0.0,69,0.00,,---,0.00,VWS V14.01,2013-03-02 04:45:00,
2013-03-01 22:50:00,31.0,22.1,30.12,NW,315,0.0,0.0,69,0.00,,---,0.00,VWS V14.01,2013-03-02 04:50:00,
2013-03-01 22:55:00,30.8,22.2,30.12,NW,315,0.0,0.0,70,0.00,,---,0.00,VWS V14.01,2013-03-02 04:55:00,
2013-03-01 23:00:00,30.7,21.7,30.12,NW,315,0.0,0.0,69,0.00,,---,0.00,VWS V14.01,2013-03-02 05:00:00,
2013-03-01 23:05:00,30.5,21.9,30.12,NW,315,0.0,0.0,70,0.00,,---,0.00,VWS V14.01,2013-03-02 05:05:00,
2013-03-01 23:10:00,30.5,22.2,30.12,NW,315,0.0,0.0,71,0.00,,---,0.00,VWS V14.01,2013-03-02 05:10:00,
2013-03-01 23:15:00,30.3,22.0,30.12,NW,315,0.0,0.0,71,0.00,,---,0.00,VWS V14.01,2013-03-02 05:15:00,
2013-03-01 23:20:00,30.1,21.9,30.12,NW,315,0.0,0.0,71,0.00,,---,0.00,VWS V14.01,2013-03-02 05:20:00,
2013-03-01 23:25:00,30.1,22.2,30.12,NW,315,0.0,0.0,72,0.00,,---,0.00,VWS V14.01,2013-03-02 05:25:00,
2013-03-01 23:30:00,29.9,22.0,30.09,NW,315,0.0,0.0,72,0.00,,---,0.00,VWS V14.01,2013-03-02 05:30:00,
2013-03-01 23:35:00,29.9,22.4,30.09,NW,315,0.0,0.0,73,0.00,,---,0.00,VWS V14.01,2013-03-02 05:35:00,
2013-03-01 23:40:00,29.8,22.2,30.09,NW,315,0.0,0.0,73,0.00,,---,0.00,VWS V14.01,2013-03-02 05:40:00,
2013-03-01 23:45:00,29.6,22.0,30.09,NW,315,0.0,0.0,73,0.00,,---,0.00,VWS V14.01,2013-03-02 05:45:00,
2013-03-01 23:50:00,29.6,22.0,30.09,NW,315,0.0,0.0,73,0.00,,---,0.00,VWS V14.01,2013-03-02 05:50:00,
2013-03-01 23:55:00,29.4,22.1,30.09,NW,315,0.0,0.0,74,0.00,,---,0.00,VWS V14.01,2013-03-02 05:55:00,